sensor_id;sensor_type;location;lat;lon;timestamp;temperature;humidity
27633;DHT22;15046;50.930;13.334;2022-11-20T00:01:12;-5.30;99.90
27633;DHT22;15046;50.930;13.334;2022-11-20T00:03:38;-5.20;99.90
27633;DHT22;15046;50.930;13.334;2022-11-20T00:06:06;-5.20;99.90
27633;DHT22;15046;50.930;13.334;2022-11-20T00:08:33;-5.30;99.90
27633;DHT22;15046;50.930;13.334;2022-11-20T00:11:19;-5.30;99.90
27633;DHT22;15046;50.930;13.334;2022-11-20T00:13:47;-5.30;99.90
27633;DHT22;15046;50.930;13.334;2022-11-20T00:16:15;-5.40;99.90
27633;DHT22;15046;50.930;13.334;2022-11-20T00:18:41;-5.40;99.90
27633;DHT22;15046;50.930;13.334;2022-11-20T00:21:19;-5.40;99.90
27633;DHT22;15046;50.930;13.334;2022-11-20T00:23:45;-5.40;99.90
27633;DHT22;15046;50.930;13.334;2022-11-20T00:26:13;-5.50;99.90
27633;DHT22;15046;50.930;13.334;2022-11-20T00:28:39;-5.50;99.90
27633;DHT22;15046;50.930;13.334;2022-11-20T00:31:08;-5.50;99.90
27633;DHT22;15046;50.930;13.334;2022-11-20T00:33:34;-5.50;99.90
27633;DHT22;15046;50.930;13.334;2022-11-20T00:36:02;-5.50;99.90
27633;DHT22;15046;50.930;13.334;2022-11-20T00:38:28;-5.60;99.90
27633;DHT22;15046;50.930;13.334;2022-11-20T00:40:58;-5.70;99.90
27633;DHT22;15046;50.930;13.334;2022-11-20T00:43:24;-5.70;99.90
27633;DHT22;15046;50.930;13.334;2022-11-20T00:45:50;-5.70;99.90
27633;DHT22;15046;50.930;13.334;2022-11-20T00:48:16;-5.70;99.90
27633;DHT22;15046;50.930;13.334;2022-11-20T00:50:42;-5.70;99.90
27633;DHT22;15046;50.930;13.334;2022-11-20T00:53:07;-5.70;99.90
27633;DHT22;15046;50.930;13.334;2022-11-20T00:55:33;-5.70;99.90
27633;DHT22;15046;50.930;13.334;2022-11-20T00:57:59;-5.80;99.90
27633;DHT22;15046;50.930;13.334;2022-11-20T01:00:24;-5.80;99.90
27633;DHT22;15046;50.930;13.334;2022-11-20T01:02:50;-5.80;99.90
27633;DHT22;15046;50.930;13.334;2022-11-20T01:05:16;-5.80;99.90
27633;DHT22;15046;50.930;13.334;2022-11-20T01:07:42;-5.80;99.90
27633;DHT22;15046;50.930;13.334;2022-11-20T01:10:08;-5.80;99.90
27633;DHT22;15046;50.930;13.334;2022-11-20T01:12:33;-5.80;99.90
27633;DHT22;15046;50.930;13.334;2022-11-20T01:14:59;-5.80;99.90
27633;DHT22;15046;50.930;13.334;2022-11-20T01:17:25;-5.90;99.90
27633;DHT22;15046;50.930;13.334;2022-11-20T01:19:51;-5.90;99.90
27633;DHT22;15046;50.930;13.334;2022-11-20T01:22:16;-5.90;99.90
27633;DHT22;15046;50.930;13.334;2022-11-20T01:24:42;-5.90;99.90
27633;DHT22;15046;50.930;13.334;2022-11-20T01:27:08;-6.00;99.90
27633;DHT22;15046;50.930;13.334;2022-11-20T01:29:34;-6.00;99.90
27633;DHT22;15046;50.930;13.334;2022-11-20T01:31:59;-6.00;99.90
27633;DHT22;15046;50.930;13.334;2022-11-20T01:34:25;-6.00;99.90
27633;DHT22;15046;50.930;13.334;2022-11-20T01:36:52;-6.00;99.90
27633;DHT22;15046;50.930;13.334;2022-11-20T01:39:21;-6.00;99.90
27633;DHT22;15046;50.930;13.334;2022-11-20T01:41:50;-6.00;99.90
27633;DHT22;15046;50.930;13.334;2022-11-20T01:47:08;-6.00;99.90
27633;DHT22;15046;50.930;13.334;2022-11-20T01:49:40;-6.00;99.90
27633;DHT22;15046;50.930;13.334;2022-11-20T01:52:12;-6.00;99.90
27633;DHT22;15046;50.930;13.334;2022-11-20T01:54:47;-6.00;99.90
27633;DHT22;15046;50.930;13.334;2022-11-20T01:57:15;-6.00;99.90
27633;DHT22;15046;50.930;13.334;2022-11-20T01:59:49;-6.10;99.90
27633;DHT22;15046;50.930;13.334;2022-11-20T02:02:16;-6.10;99.90
27633;DHT22;15046;50.930;13.334;2022-11-20T02:04:42;-6.10;99.90
27633;DHT22;15046;50.930;13.334;2022-11-20T02:07:08;-6.10;99.90
27633;DHT22;15046;50.930;13.334;2022-11-20T02:09:34;-6.10;99.90
27633;DHT22;15046;50.930;13.334;2022-11-20T02:12:00;-6.10;99.90
27633;DHT22;15046;50.930;13.334;2022-11-20T02:14:26;-6.20;99.90
27633;DHT22;15046;50.930;13.334;2022-11-20T02:16:54;-6.20;99.90
27633;DHT22;15046;50.930;13.334;2022-11-20T02:19:28;-6.20;99.90
27633;DHT22;15046;50.930;13.334;2022-11-20T02:22:14;-6.20;99.90
27633;DHT22;15046;50.930;13.334;2022-11-20T02:24:44;-6.20;99.90
27633;DHT22;15046;50.930;13.334;2022-11-20T02:27:13;-6.30;99.90
27633;DHT22;15046;50.930;13.334;2022-11-20T02:32:19;-6.30;99.90
27633;DHT22;15046;50.930;13.334;2022-11-20T02:34:45;-6.30;99.90
27633;DHT22;15046;50.930;13.334;2022-11-20T02:37:10;-6.30;99.90
27633;DHT22;15046;50.930;13.334;2022-11-20T02:39:37;-6.30;99.90
27633;DHT22;15046;50.930;13.334;2022-11-20T02:42:03;-6.30;99.90
27633;DHT22;15046;50.930;13.334;2022-11-20T02:44:28;-6.30;99.90
27633;DHT22;15046;50.930;13.334;2022-11-20T02:46:57;-6.40;99.90
27633;DHT22;15046;50.930;13.334;2022-11-20T02:49:24;-6.40;99.90
27633;DHT22;15046;50.930;13.334;2022-11-20T02:51:49;-6.40;99.90
27633;DHT22;15046;50.930;13.334;2022-11-20T02:54:15;-6.40;99.90
27633;DHT22;15046;50.930;13.334;2022-11-20T02:56:41;-6.40;99.90
27633;DHT22;15046;50.930;13.334;2022-11-20T02:59:07;-6.40;99.90
27633;DHT22;15046;50.930;13.334;2022-11-20T03:01:33;-6.40;99.90
27633;DHT22;15046;50.930;13.334;2022-11-20T03:03:58;-6.40;99.90
27633;DHT22;15046;50.930;13.334;2022-11-20T03:06:24;-6.40;99.90
27633;DHT22;15046;50.930;13.334;2022-11-20T03:08:50;-6.40;99.90
27633;DHT22;15046;50.930;13.334;2022-11-20T03:11:16;-6.50;99.90
27633;DHT22;15046;50.930;13.334;2022-11-20T03:13:42;-6.50;99.90
27633;DHT22;15046;50.930;13.334;2022-11-20T03:16:11;-6.50;99.90
27633;DHT22;15046;50.930;13.334;2022-11-20T03:18:38;-6.50;99.90
27633;DHT22;15046;50.930;13.334;2022-11-20T03:21:05;-6.50;99.90
27633;DHT22;15046;50.930;13.334;2022-11-20T03:23:32;-6.50;99.90
27633;DHT22;15046;50.930;13.334;2022-11-20T03:26:09;-6.50;99.90
27633;DHT22;15046;50.930;13.334;2022-11-20T03:28:35;-6.50;99.90
27633;DHT22;15046;50.930;13.334;2022-11-20T03:31:12;-6.60;99.90
27633;DHT22;15046;50.930;13.334;2022-11-20T03:33:39;-6.60;99.90
27633;DHT22;15046;50.930;13.334;2022-11-20T03:36:08;-6.60;99.90
27633;DHT22;15046;50.930;13.334;2022-11-20T03:38:35;-6.60;99.90
27633;DHT22;15046;50.930;13.334;2022-11-20T03:41:12;-6.60;99.90
27633;DHT22;15046;50.930;13.334;2022-11-20T03:43:38;-6.60;99.90
27633;DHT22;15046;50.930;13.334;2022-11-20T03:46:05;-6.60;99.90
27633;DHT22;15046;50.930;13.334;2022-11-20T03:48:31;-6.60;99.90
27633;DHT22;15046;50.930;13.334;2022-11-20T03:51:15;-6.60;99.90
27633;DHT22;15046;50.930;13.334;2022-11-20T03:53:43;-6.70;99.90
27633;DHT22;15046;50.930;13.334;2022-11-20T03:56:14;-6.70;99.90
27633;DHT22;15046;50.930;13.334;2022-11-20T03:58:42;-6.70;99.90
27633;DHT22;15046;50.930;13.334;2022-11-20T04:01:10;-6.70;99.90
27633;DHT22;15046;50.930;13.334;2022-11-20T04:03:38;-6.80;99.90
27633;DHT22;15046;50.930;13.334;2022-11-20T04:06:15;-6.70;99.90
27633;DHT22;15046;50.930;13.334;2022-11-20T04:08:42;-6.80;99.90
27633;DHT22;15046;50.930;13.334;2022-11-20T04:11:13;-6.80;99.90
27633;DHT22;15046;50.930;13.334;2022-11-20T04:13:41;-6.80;99.90
27633;DHT22;15046;50.930;13.334;2022-11-20T04:16:07;-6.80;99.90
27633;DHT22;15046;50.930;13.334;2022-11-20T04:18:34;-6.90;99.90
27633;DHT22;15046;50.930;13.334;2022-11-20T04:21:00;-6.90;99.90
27633;DHT22;15046;50.930;13.334;2022-11-20T04:23:26;-6.90;99.90
27633;DHT22;15046;50.930;13.334;2022-11-20T04:25:52;-7.00;99.90
27633;DHT22;15046;50.930;13.334;2022-11-20T04:28:18;-7.00;99.90
27633;DHT22;15046;50.930;13.334;2022-11-20T04:30:44;-7.00;99.90
27633;DHT22;15046;50.930;13.334;2022-11-20T04:33:09;-7.00;99.90
27633;DHT22;15046;50.930;13.334;2022-11-20T04:35:36;-7.00;99.90
27633;DHT22;15046;50.930;13.334;2022-11-20T04:38:02;-7.00;99.90
27633;DHT22;15046;50.930;13.334;2022-11-20T04:40:28;-7.10;99.90
27633;DHT22;15046;50.930;13.334;2022-11-20T04:42:55;-7.10;99.90
27633;DHT22;15046;50.930;13.334;2022-11-20T04:45:21;-7.10;99.90
27633;DHT22;15046;50.930;13.334;2022-11-20T04:47:47;-7.10;99.90
27633;DHT22;15046;50.930;13.334;2022-11-20T04:50:13;-7.10;99.90
27633;DHT22;15046;50.930;13.334;2022-11-20T04:52:38;-7.10;99.90
27633;DHT22;15046;50.930;13.334;2022-11-20T04:55:05;-7.10;99.90
27633;DHT22;15046;50.930;13.334;2022-11-20T04:57:31;-7.10;99.90
27633;DHT22;15046;50.930;13.334;2022-11-20T04:59:56;-7.10;99.90
27633;DHT22;15046;50.930;13.334;2022-11-20T05:02:23;-7.10;99.90
27633;DHT22;15046;50.930;13.334;2022-11-20T05:04:48;-7.10;99.90
27633;DHT22;15046;50.930;13.334;2022-11-20T05:07:14;-7.20;99.90
27633;DHT22;15046;50.930;13.334;2022-11-20T05:09:40;-7.20;99.90
27633;DHT22;15046;50.930;13.334;2022-11-20T05:12:08;-7.20;99.90
27633;DHT22;15046;50.930;13.334;2022-11-20T05:14:34;-7.10;99.90
27633;DHT22;15046;50.930;13.334;2022-11-20T05:17:00;-7.20;99.90
27633;DHT22;15046;50.930;13.334;2022-11-20T05:19:26;-7.10;99.90
27633;DHT22;15046;50.930;13.334;2022-11-20T05:21:51;-7.10;99.90
27633;DHT22;15046;50.930;13.334;2022-11-20T05:24:17;-7.10;99.90
27633;DHT22;15046;50.930;13.334;2022-11-20T05:26:43;-7.20;99.90
27633;DHT22;15046;50.930;13.334;2022-11-20T05:29:10;-7.20;99.90
27633;DHT22;15046;50.930;13.334;2022-11-20T05:31:39;-7.20;99.90
27633;DHT22;15046;50.930;13.334;2022-11-20T05:34:05;-7.20;99.90
27633;DHT22;15046;50.930;13.334;2022-11-20T05:36:31;-7.20;99.90
27633;DHT22;15046;50.930;13.334;2022-11-20T05:38:57;-7.20;99.90
27633;DHT22;15046;50.930;13.334;2022-11-20T05:41:23;-7.20;99.90
27633;DHT22;15046;50.930;13.334;2022-11-20T05:43:49;-7.20;99.90
27633;DHT22;15046;50.930;13.334;2022-11-20T05:46:20;-7.20;99.90
27633;DHT22;15046;50.930;13.334;2022-11-20T05:48:46;-7.20;99.90
27633;DHT22;15046;50.930;13.334;2022-11-20T05:51:15;-7.20;99.90
27633;DHT22;15046;50.930;13.334;2022-11-20T05:53:42;-7.20;99.90
27633;DHT22;15046;50.930;13.334;2022-11-20T05:56:12;-7.20;99.90
27633;DHT22;15046;50.930;13.334;2022-11-20T05:58:39;-7.30;99.90
27633;DHT22;15046;50.930;13.334;2022-11-20T06:01:12;-7.30;99.90
27633;DHT22;15046;50.930;13.334;2022-11-20T06:03:38;-7.40;99.90
27633;DHT22;15046;50.930;13.334;2022-11-20T06:06:04;-7.30;99.90
27633;DHT22;15046;50.930;13.334;2022-11-20T06:08:31;-7.30;99.90
27633;DHT22;15046;50.930;13.334;2022-11-20T06:10:57;-7.30;99.90
27633;DHT22;15046;50.930;13.334;2022-11-20T06:13:23;-7.30;99.90
27633;DHT22;15046;50.930;13.334;2022-11-20T06:15:52;-7.30;99.90
27633;DHT22;15046;50.930;13.334;2022-11-20T06:18:19;-7.30;99.90
27633;DHT22;15046;50.930;13.334;2022-11-20T06:20:45;-7.30;99.90
27633;DHT22;15046;50.930;13.334;2022-11-20T06:23:12;-7.30;99.90
27633;DHT22;15046;50.930;13.334;2022-11-20T06:25:42;-7.20;99.90
27633;DHT22;15046;50.930;13.334;2022-11-20T06:28:08;-7.20;99.90
27633;DHT22;15046;50.930;13.334;2022-11-20T06:30:34;-7.20;99.90
27633;DHT22;15046;50.930;13.334;2022-11-20T06:33:00;-7.20;99.90
27633;DHT22;15046;50.930;13.334;2022-11-20T06:35:26;-7.20;99.90
27633;DHT22;15046;50.930;13.334;2022-11-20T06:37:52;-7.20;99.90
27633;DHT22;15046;50.930;13.334;2022-11-20T06:40:18;-7.20;99.90
27633;DHT22;15046;50.930;13.334;2022-11-20T06:42:44;-7.20;99.90
27633;DHT22;15046;50.930;13.334;2022-11-20T06:45:10;-7.20;99.90
27633;DHT22;15046;50.930;13.334;2022-11-20T06:47:36;-7.20;99.90
27633;DHT22;15046;50.930;13.334;2022-11-20T06:50:02;-7.20;99.90
27633;DHT22;15046;50.930;13.334;2022-11-20T06:52:27;-7.20;99.90
27633;DHT22;15046;50.930;13.334;2022-11-20T06:54:53;-7.10;99.90
27633;DHT22;15046;50.930;13.334;2022-11-20T06:57:19;-7.10;99.90
27633;DHT22;15046;50.930;13.334;2022-11-20T06:59:45;-7.00;99.90
27633;DHT22;15046;50.930;13.334;2022-11-20T07:02:11;-7.00;99.90
27633;DHT22;15046;50.930;13.334;2022-11-20T07:04:38;-7.00;99.90
27633;DHT22;15046;50.930;13.334;2022-11-20T07:07:04;-6.90;99.90
27633;DHT22;15046;50.930;13.334;2022-11-20T07:09:29;-6.90;99.90
27633;DHT22;15046;50.930;13.334;2022-11-20T07:11:55;-6.90;99.90
27633;DHT22;15046;50.930;13.334;2022-11-20T07:14:21;-6.80;99.90
27633;DHT22;15046;50.930;13.334;2022-11-20T07:16:47;-6.80;99.90
27633;DHT22;15046;50.930;13.334;2022-11-20T07:19:12;-6.70;99.90
27633;DHT22;15046;50.930;13.334;2022-11-20T07:21:38;-6.70;99.90
27633;DHT22;15046;50.930;13.334;2022-11-20T07:24:04;-6.60;99.90
27633;DHT22;15046;50.930;13.334;2022-11-20T07:26:30;-6.60;99.90
27633;DHT22;15046;50.930;13.334;2022-11-20T07:28:55;-6.60;99.90
27633;DHT22;15046;50.930;13.334;2022-11-20T07:31:21;-6.50;99.90
27633;DHT22;15046;50.930;13.334;2022-11-20T07:33:47;-6.50;99.90
27633;DHT22;15046;50.930;13.334;2022-11-20T07:36:13;-6.40;99.90
27633;DHT22;15046;50.930;13.334;2022-11-20T07:38:39;-6.40;99.90
27633;DHT22;15046;50.930;13.334;2022-11-20T07:41:05;-6.30;99.90
27633;DHT22;15046;50.930;13.334;2022-11-20T07:43:31;-6.20;99.90
27633;DHT22;15046;50.930;13.334;2022-11-20T07:45:58;-6.10;99.90
27633;DHT22;15046;50.930;13.334;2022-11-20T07:48:25;-6.10;99.90
27633;DHT22;15046;50.930;13.334;2022-11-20T07:50:57;-6.00;99.90
27633;DHT22;15046;50.930;13.334;2022-11-20T07:53:23;-5.90;99.90
27633;DHT22;15046;50.930;13.334;2022-11-20T07:55:49;-5.90;99.90
27633;DHT22;15046;50.930;13.334;2022-11-20T07:58:18;-5.80;99.90
27633;DHT22;15046;50.930;13.334;2022-11-20T08:00:44;-5.70;99.90
27633;DHT22;15046;50.930;13.334;2022-11-20T08:03:10;-5.70;99.90
27633;DHT22;15046;50.930;13.334;2022-11-20T08:05:36;-5.60;99.90
27633;DHT22;15046;50.930;13.334;2022-11-20T08:08:03;-5.50;99.90
27633;DHT22;15046;50.930;13.334;2022-11-20T08:10:28;-5.40;99.90
27633;DHT22;15046;50.930;13.334;2022-11-20T08:12:54;-5.10;99.90
27633;DHT22;15046;50.930;13.334;2022-11-20T08:15:39;-4.90;99.90
27633;DHT22;15046;50.930;13.334;2022-11-20T08:18:10;-4.70;99.90
27633;DHT22;15046;50.930;13.334;2022-11-20T08:20:37;-4.50;99.90
27633;DHT22;15046;50.930;13.334;2022-11-20T08:23:05;-4.30;99.90
27633;DHT22;15046;50.930;13.334;2022-11-20T08:25:32;-4.20;99.90
27633;DHT22;15046;50.930;13.334;2022-11-20T08:28:00;-4.00;99.90
27633;DHT22;15046;50.930;13.334;2022-11-20T08:30:26;-3.90;99.90
27633;DHT22;15046;50.930;13.334;2022-11-20T08:32:52;-3.80;99.90
27633;DHT22;15046;50.930;13.334;2022-11-20T08:35:18;-3.70;99.90
27633;DHT22;15046;50.930;13.334;2022-11-20T08:37:47;-3.70;99.90
27633;DHT22;15046;50.930;13.334;2022-11-20T08:40:13;-3.60;99.90
27633;DHT22;15046;50.930;13.334;2022-11-20T08:42:50;-3.40;99.90
27633;DHT22;15046;50.930;13.334;2022-11-20T08:45:17;-3.30;99.90
27633;DHT22;15046;50.930;13.334;2022-11-20T08:47:44;-3.20;99.90
27633;DHT22;15046;50.930;13.334;2022-11-20T08:50:12;-3.10;99.90
27633;DHT22;15046;50.930;13.334;2022-11-20T08:52:38;-3.00;99.90
27633;DHT22;15046;50.930;13.334;2022-11-20T08:55:05;-2.90;99.90
27633;DHT22;15046;50.930;13.334;2022-11-20T08:57:32;-2.80;99.90
27633;DHT22;15046;50.930;13.334;2022-11-20T08:59:58;-2.70;99.90
27633;DHT22;15046;50.930;13.334;2022-11-20T09:02:24;-2.60;99.90
27633;DHT22;15046;50.930;13.334;2022-11-20T09:04:50;-2.50;99.90
27633;DHT22;15046;50.930;13.334;2022-11-20T09:07:16;-2.40;99.90
27633;DHT22;15046;50.930;13.334;2022-11-20T09:09:42;-2.30;99.90
27633;DHT22;15046;50.930;13.334;2022-11-20T09:12:08;-2.00;99.90
27633;DHT22;15046;50.930;13.334;2022-11-20T09:14:33;-1.80;99.90
27633;DHT22;15046;50.930;13.334;2022-11-20T09:16:59;-1.50;99.90
27633;DHT22;15046;50.930;13.334;2022-11-20T09:19:25;-1.30;99.90
27633;DHT22;15046;50.930;13.334;2022-11-20T09:21:51;-1.10;99.90
27633;DHT22;15046;50.930;13.334;2022-11-20T09:24:18;-1.00;99.90
27633;DHT22;15046;50.930;13.334;2022-11-20T09:26:44;-1.00;99.90
27633;DHT22;15046;50.930;13.334;2022-11-20T09:29:10;-1.00;99.90
27633;DHT22;15046;50.930;13.334;2022-11-20T09:31:36;-0.90;99.90
27633;DHT22;15046;50.930;13.334;2022-11-20T09:34:02;-0.50;99.90
27633;DHT22;15046;50.930;13.334;2022-11-20T09:36:28;-0.10;99.90
27633;DHT22;15046;50.930;13.334;2022-11-20T09:38:54;0.30;99.90
27633;DHT22;15046;50.930;13.334;2022-11-20T09:41:29;0.60;99.90
27633;DHT22;15046;50.930;13.334;2022-11-20T09:44:07;1.00;99.90
27633;DHT22;15046;50.930;13.334;2022-11-20T09:46:45;1.30;99.90
27633;DHT22;15046;50.930;13.334;2022-11-20T09:49:30;1.40;99.90
27633;DHT22;15046;50.930;13.334;2022-11-20T09:54:53;1.20;99.90
27633;DHT22;15046;50.930;13.334;2022-11-20T09:57:22;1.10;99.90
27633;DHT22;15046;50.930;13.334;2022-11-20T09:59:57;1.10;99.90
27633;DHT22;15046;50.930;13.334;2022-11-20T10:02:28;1.40;99.90
27633;DHT22;15046;50.930;13.334;2022-11-20T10:05:15;1.90;99.90
27633;DHT22;15046;50.930;13.334;2022-11-20T10:10:29;3.50;99.90
27633;DHT22;15046;50.930;13.334;2022-11-20T10:16:03;5.10;99.90
27633;DHT22;15046;50.930;13.334;2022-11-20T10:27:09;4.90;99.90
27633;DHT22;15046;50.930;13.334;2022-11-20T10:29:43;4.30;99.90
27633;DHT22;15046;50.930;13.334;2022-11-20T10:32:15;3.40;99.90
27633;DHT22;15046;50.930;13.334;2022-11-20T10:34:54;2.80;99.90
27633;DHT22;15046;50.930;13.334;2022-11-20T10:37:26;2.40;99.90
27633;DHT22;15046;50.930;13.334;2022-11-20T10:42:56;1.60;99.90
27633;DHT22;15046;50.930;13.334;2022-11-20T10:48:10;1.20;99.90
27633;DHT22;15046;50.930;13.334;2022-11-20T10:50:39;1.00;99.90
27633;DHT22;15046;50.930;13.334;2022-11-20T10:55:56;0.70;99.90
27633;DHT22;15046;50.930;13.334;2022-11-20T11:01:18;0.40;99.90
27633;DHT22;15046;50.930;13.334;2022-11-20T11:03:44;0.30;99.90
27633;DHT22;15046;50.930;13.334;2022-11-20T11:06:17;0.30;99.90
27633;DHT22;15046;50.930;13.334;2022-11-20T11:08:46;0.20;99.90
27633;DHT22;15046;50.930;13.334;2022-11-20T11:11:25;0.20;99.90
27633;DHT22;15046;50.930;13.334;2022-11-20T11:13:52;0.20;99.90
27633;DHT22;15046;50.930;13.334;2022-11-20T11:16:25;0.20;99.90
27633;DHT22;15046;50.930;13.334;2022-11-20T11:18:51;0.20;99.90
27633;DHT22;15046;50.930;13.334;2022-11-20T11:21:24;0.20;99.90
27633;DHT22;15046;50.930;13.334;2022-11-20T11:24:02;0.30;99.90
27633;DHT22;15046;50.930;13.334;2022-11-20T11:26:29;0.30;99.90
27633;DHT22;15046;50.930;13.334;2022-11-20T11:29:04;0.30;99.90
27633;DHT22;15046;50.930;13.334;2022-11-20T11:31:34;0.40;99.90
27633;DHT22;15046;50.930;13.334;2022-11-20T11:34:11;0.40;99.90
27633;DHT22;15046;50.930;13.334;2022-11-20T11:36:37;0.50;99.90
27633;DHT22;15046;50.930;13.334;2022-11-20T11:39:06;0.40;99.90
27633;DHT22;15046;50.930;13.334;2022-11-20T11:41:36;0.40;99.90
27633;DHT22;15046;50.930;13.334;2022-11-20T11:44:32;0.40;99.90
27633;DHT22;15046;50.930;13.334;2022-11-20T11:47:29;0.30;99.90
27633;DHT22;15046;50.930;13.334;2022-11-20T11:55:24;0.30;99.90
27633;DHT22;15046;50.930;13.334;2022-11-20T12:00:35;0.40;99.90
27633;DHT22;15046;50.930;13.334;2022-11-20T12:03:36;0.40;99.90
27633;DHT22;15046;50.930;13.334;2022-11-20T12:06:01;0.40;99.90
27633;DHT22;15046;50.930;13.334;2022-11-20T12:08:53;0.40;99.90
27633;DHT22;15046;50.930;13.334;2022-11-20T12:16:50;0.40;99.90
27633;DHT22;15046;50.930;13.334;2022-11-20T12:19:18;0.30;99.90
27633;DHT22;15046;50.930;13.334;2022-11-20T12:24:42;0.40;99.90
27633;DHT22;15046;50.930;13.334;2022-11-20T12:37:41;0.50;99.90
27633;DHT22;15046;50.930;13.334;2022-11-20T12:40:22;0.50;99.90
27633;DHT22;15046;50.930;13.334;2022-11-20T12:43:05;0.50;99.90
27633;DHT22;15046;50.930;13.334;2022-11-20T12:46:01;0.50;99.90
27633;DHT22;15046;50.930;13.334;2022-11-20T12:49:31;0.50;99.90
27633;DHT22;15046;50.930;13.334;2022-11-20T12:52:24;0.60;99.90
27633;DHT22;15046;50.930;13.334;2022-11-20T12:55:32;0.70;99.90
27633;DHT22;15046;50.930;13.334;2022-11-20T12:58:21;0.70;99.90
27633;DHT22;15046;50.930;13.334;2022-11-20T13:01:21;0.70;99.90
27633;DHT22;15046;50.930;13.334;2022-11-20T13:04:16;0.70;99.90
27633;DHT22;15046;50.930;13.334;2022-11-20T13:06:46;0.70;99.90
27633;DHT22;15046;50.930;13.334;2022-11-20T13:09:18;0.60;99.90
27633;DHT22;15046;50.930;13.334;2022-11-20T13:17:40;0.70;99.90
27633;DHT22;15046;50.930;13.334;2022-11-20T13:20:14;0.60;99.90
27633;DHT22;15046;50.930;13.334;2022-11-20T13:22:46;0.60;99.90
27633;DHT22;15046;50.930;13.334;2022-11-20T13:25:24;0.60;99.90
27633;DHT22;15046;50.930;13.334;2022-11-20T13:27:52;0.60;99.90
27633;DHT22;15046;50.930;13.334;2022-11-20T13:30:22;0.50;99.90
27633;DHT22;15046;50.930;13.334;2022-11-20T13:32:52;0.50;99.90
27633;DHT22;15046;50.930;13.334;2022-11-20T13:35:30;0.40;99.90
27633;DHT22;15046;50.930;13.334;2022-11-20T13:40:28;0.40;99.90
27633;DHT22;15046;50.930;13.334;2022-11-20T13:45:38;0.30;99.90
27633;DHT22;15046;50.930;13.334;2022-11-20T13:48:22;0.40;99.90
27633;DHT22;15046;50.930;13.334;2022-11-20T14:02:20;0.30;99.90
27633;DHT22;15046;50.930;13.334;2022-11-20T14:04:49;0.30;99.90
27633;DHT22;15046;50.930;13.334;2022-11-20T14:07:19;0.20;99.90
27633;DHT22;15046;50.930;13.334;2022-11-20T14:09:56;0.20;99.90
27633;DHT22;15046;50.930;13.334;2022-11-20T14:12:30;0.20;99.90
27633;DHT22;15046;50.930;13.334;2022-11-20T14:14:57;0.20;99.90
27633;DHT22;15046;50.930;13.334;2022-11-20T14:17:30;0.20;99.90
27633;DHT22;15046;50.930;13.334;2022-11-20T14:20:06;0.20;99.90
27633;DHT22;15046;50.930;13.334;2022-11-20T14:22:33;0.20;99.90
27633;DHT22;15046;50.930;13.334;2022-11-20T14:27:40;0.20;99.90
27633;DHT22;15046;50.930;13.334;2022-11-20T14:32:39;0.20;99.90
27633;DHT22;15046;50.930;13.334;2022-11-20T14:35:18;0.20;99.90
27633;DHT22;15046;50.930;13.334;2022-11-20T14:37:46;0.30;99.90
27633;DHT22;15046;50.930;13.334;2022-11-20T14:40:35;0.20;99.90
27633;DHT22;15046;50.930;13.334;2022-11-20T14:43:15;0.10;99.90
27633;DHT22;15046;50.930;13.334;2022-11-20T14:45:42;0.10;99.90
27633;DHT22;15046;50.930;13.334;2022-11-20T14:48:09;0.00;99.90
27633;DHT22;15046;50.930;13.334;2022-11-20T14:50:38;-0.10;99.90
27633;DHT22;15046;50.930;13.334;2022-11-20T14:53:05;-0.30;99.90
27633;DHT22;15046;50.930;13.334;2022-11-20T14:55:34;-0.30;99.90
27633;DHT22;15046;50.930;13.334;2022-11-20T14:58:05;-0.40;99.90
27633;DHT22;15046;50.930;13.334;2022-11-20T15:00:33;-0.50;99.90
27633;DHT22;15046;50.930;13.334;2022-11-20T15:02:59;-0.50;99.90
27633;DHT22;15046;50.930;13.334;2022-11-20T15:05:49;-0.60;99.90
27633;DHT22;15046;50.930;13.334;2022-11-20T15:08:16;-0.70;99.90
27633;DHT22;15046;50.930;13.334;2022-11-20T15:10:51;-0.80;99.90
27633;DHT22;15046;50.930;13.334;2022-11-20T15:13:25;-0.90;99.90
27633;DHT22;15046;50.930;13.334;2022-11-20T15:15:56;-1.00;99.90
27633;DHT22;15046;50.930;13.334;2022-11-20T15:20:55;-1.10;99.90
27633;DHT22;15046;50.930;13.334;2022-11-20T15:23:23;-1.10;99.90
27633;DHT22;15046;50.930;13.334;2022-11-20T15:25:49;-1.20;99.90
27633;DHT22;15046;50.930;13.334;2022-11-20T15:28:20;-1.30;99.90
27633;DHT22;15046;50.930;13.334;2022-11-20T15:30:48;-1.30;99.90
27633;DHT22;15046;50.930;13.334;2022-11-20T15:33:15;-1.40;99.90
27633;DHT22;15046;50.930;13.334;2022-11-20T15:35:41;-1.50;99.90
27633;DHT22;15046;50.930;13.334;2022-11-20T15:38:07;-1.50;99.90
27633;DHT22;15046;50.930;13.334;2022-11-20T15:40:33;-1.50;99.90
27633;DHT22;15046;50.930;13.334;2022-11-20T15:42:58;-1.60;99.90
27633;DHT22;15046;50.930;13.334;2022-11-20T15:45:39;-1.60;99.90
27633;DHT22;15046;50.930;13.334;2022-11-20T15:48:16;-1.60;99.90
27633;DHT22;15046;50.930;13.334;2022-11-20T15:53:27;-1.70;99.90
27633;DHT22;15046;50.930;13.334;2022-11-20T15:55:53;-1.80;99.90
27633;DHT22;15046;50.930;13.334;2022-11-20T15:58:19;-1.80;99.90
27633;DHT22;15046;50.930;13.334;2022-11-20T16:00:46;-1.90;99.90
27633;DHT22;15046;50.930;13.334;2022-11-20T16:03:14;-1.90;99.90
27633;DHT22;15046;50.930;13.334;2022-11-20T16:05:40;-2.00;99.90
27633;DHT22;15046;50.930;13.334;2022-11-20T16:08:06;-2.00;99.90
27633;DHT22;15046;50.930;13.334;2022-11-20T16:10:33;-2.00;99.90
27633;DHT22;15046;50.930;13.334;2022-11-20T16:12:59;-2.00;99.90
27633;DHT22;15046;50.930;13.334;2022-11-20T16:15:56;-2.00;99.90
27633;DHT22;15046;50.930;13.334;2022-11-20T16:18:25;-2.00;99.90
27633;DHT22;15046;50.930;13.334;2022-11-20T16:20:53;-2.00;99.90
27633;DHT22;15046;50.930;13.334;2022-11-20T16:23:20;-2.00;99.90
27633;DHT22;15046;50.930;13.334;2022-11-20T16:25:47;-1.90;99.90
27633;DHT22;15046;50.930;13.334;2022-11-20T16:28:14;-1.90;99.90
27633;DHT22;15046;50.930;13.334;2022-11-20T16:30:40;-1.90;99.90
27633;DHT22;15046;50.930;13.334;2022-11-20T16:33:16;-1.90;99.90
27633;DHT22;15046;50.930;13.334;2022-11-20T16:35:42;-1.90;99.90
27633;DHT22;15046;50.930;13.334;2022-11-20T16:38:09;-1.90;99.90
27633;DHT22;15046;50.930;13.334;2022-11-20T16:40:35;-1.90;99.90
27633;DHT22;15046;50.930;13.334;2022-11-20T16:43:12;-1.90;99.90
27633;DHT22;15046;50.930;13.334;2022-11-20T16:45:43;-1.90;99.90
27633;DHT22;15046;50.930;13.334;2022-11-20T16:48:15;-1.90;99.90
27633;DHT22;15046;50.930;13.334;2022-11-20T16:50:52;-1.90;99.90
27633;DHT22;15046;50.930;13.334;2022-11-20T16:53:20;-1.90;99.90
27633;DHT22;15046;50.930;13.334;2022-11-20T16:55:46;-1.90;99.90
27633;DHT22;15046;50.930;13.334;2022-11-20T16:58:13;-1.90;99.90
27633;DHT22;15046;50.930;13.334;2022-11-20T17:00:40;-1.90;99.90
27633;DHT22;15046;50.930;13.334;2022-11-20T17:03:06;-1.90;99.90
27633;DHT22;15046;50.930;13.334;2022-11-20T17:05:35;-1.90;99.90
27633;DHT22;15046;50.930;13.334;2022-11-20T17:08:01;-1.90;99.90